Time;durP1;ratioP1;P1;durP2;ratioP2;P2;SDS_P1;SDS_P2;PMS_P1;PMS_P2;Temp;Humidity;BMP_temperature;BMP_pressure;BME280_temperature;BME280_humidity;BME280_pressure;Samples;Min_cycle;Max_cycle;Signal;HPM_P1;HPM_P2
2022/05/02 00:00:07;;;;;;;314.17;118.23;;;;;;;13.90;66.96;99853.16;415730;23;972;-79
2022/05/02 00:00:20;;;;;;;315.10;118.50;;;;;;;13.89;66.71;99840.94;411876;24;1358;-79
2022/05/02 00:00:30;;;;;;;314.52;117.28;;;;;;;13.94;66.56;99842.41;418028;23;832;-79
2022/05/02 00:00:42;;;;;;;315.33;117.77;;;;;;;13.98;66.72;99851.00;412476;24;858;-79
2022/05/02 00:00:52;;;;;;;314.20;117.65;;;;;;;13.90;66.29;99837.38;419762;23;1450;-79
2022/05/02 00:01:02;;;;;;;316.03;118.27;;;;;;;13.94;66.64;99839.78;420326;23;1299;-79
2022/05/02 00:01:13;;;;;;;319.47;118.80;;;;;;;13.89;66.52;99835.66;415866;23;1166;-79
2022/05/02 00:01:23;;;;;;;318.08;117.63;;;;;;;13.84;66.94;99832.44;413814;23;1336;-79
2022/05/02 00:01:34;;;;;;;316.40;117.50;;;;;;;13.86;66.68;99847.19;417944;23;857;-79
2022/05/02 00:01:44;;;;;;;315.70;117.38;;;;;;;13.85;66.92;99849.94;417800;23;1249;-79
2022/05/02 00:01:54;;;;;;;319.20;120.40;;;;;;;13.78;67.03;99845.91;415516;23;1201;-79
2022/05/02 00:02:05;;;;;;;318.60;119.35;;;;;;;13.71;67.35;99844.50;415706;23;1338;-79
2022/05/02 00:02:15;;;;;;;316.80;118.63;;;;;;;13.67;67.16;99845.59;414239;23;1411;-79
2022/05/02 00:02:26;;;;;;;311.98;115.72;;;;;;;13.62;67.41;99851.94;417963;23;1309;-79
2022/05/02 00:02:36;;;;;;;311.03;116.70;;;;;;;13.57;67.64;99853.94;417630;23;1436;-79
2022/05/02 00:02:47;;;;;;;310.83;116.20;;;;;;;13.50;67.99;99849.88;411860;24;1376;-79
2022/05/02 00:02:57;;;;;;;313.60;116.18;;;;;;;13.46;68.01;99853.59;417590;23;1186;-79
2022/05/02 00:03:09;;;;;;;316.27;116.47;;;;;;;13.46;68.33;99850.97;417550;23;1316;-79
2022/05/02 00:03:19;;;;;;;314.35;114.82;;;;;;;13.48;68.21;99854.38;415750;23;1292;-79
2022/05/02 00:03:30;;;;;;;312.25;114.57;;;;;;;13.47;68.29;99852.66;413962;23;1246;-79
2022/05/02 00:03:40;;;;;;;310.92;114.90;;;;;;;13.44;68.21;99847.56;414089;23;1254;-79
2022/05/02 00:03:51;;;;;;;312.47;116.90;;;;;;;13.41;68.60;99850.38;417612;23;1291;-79
2022/05/02 00:04:01;;;;;;;313.03;117.20;;;;;;;13.37;68.75;99843.56;415829;23;743;-79
2022/05/02 00:04:12;;;;;;;314.15;118.93;;;;;;;13.35;68.82;99849.81;415733;23;1358;-79
2022/05/02 00:04:22;;;;;;;317.23;119.73;;;;;;;13.34;68.76;99843.69;411897;24;1286;-79
2022/05/02 00:04:32;;;;;;;318.15;120.38;;;;;;;13.28;69.09;99836.09;415893;23;920;-79
2022/05/02 00:04:43;;;;;;;320.77;119.17;;;;;;;13.27;68.95;99842.28;413846;23;1274;-79
2022/05/02 00:04:53;;;;;;;317.27;116.72;;;;;;;13.26;68.88;99843.22;421868;23;1268;-79
2022/05/02 00:05:04;;;;;;;316.77;116.27;;;;;;;13.30;69.04;99847.41;417755;23;1259;-79
2022/05/02 00:05:15;;;;;;;311.65;114.35;;;;;;;13.27;68.85;99842.28;413786;23;1393;-79
2022/05/02 00:05:27;;;;;;;309.90;113.95;;;;;;;13.25;69.28;99845.00;417520;23;1315;-79
2022/05/02 00:05:37;;;;;;;307.40;112.15;;;;;;;13.26;69.07;99845.84;415687;23;1320;-79
2022/05/02 00:05:48;;;;;;;311.20;114.10;;;;;;;13.29;69.20;99850.97;413680;23;1226;-78
2022/05/02 00:05:58;;;;;;;312.10;113.80;;;;;;;13.29;69.14;99850.97;415872;23;1334;-78
2022/05/02 00:06:09;;;;;;;313.33;115.17;;;;;;;13.30;69.02;99847.41;417805;23;1177;-78
2022/05/02 00:06:19;;;;;;;313.27;117.70;;;;;;;13.26;69.19;99846.69;415965;23;1083;-78
2022/05/02 00:06:29;;;;;;;314.37;118.20;;;;;;;13.20;69.31;99846.13;417643;23;1287;-78
2022/05/02 00:06:40;;;;;;;316.25;118.80;;;;;;;13.15;69.60;99840.22;413348;23;1198;-77
2022/05/02 00:06:50;;;;;;;317.07;118.83;;;;;;;13.10;69.54;99836.94;415631;23;1304;-77
2022/05/02 00:07:00;;;;;;;316.73;119.10;;;;;;;13.13;69.67;99842.06;415545;23;1182;-77
2022/05/02 00:07:11;;;;;;;320.87;119.53;;;;;;;13.13;69.76;99840.28;415670;23;1256;-77
2022/05/02 00:07:21;;;;;;;321.47;118.33;;;;;;;13.15;69.57;99842.84;413715;23;1201;-77
2022/05/02 00:07:32;;;;;;;321.60;117.57;;;;;;;13.19;69.70;99845.28;419776;23;1229;-77
2022/05/02 00:07:42;;;;;;;319.50;116.80;;;;;;;13.15;69.43;99838.44;419746;23;1225;-78
2022/05/02 00:07:53;;;;;;;317.10;115.60;;;;;;;13.23;69.63;99840.72;419566;23;1452;-78
2022/05/02 00:08:03;;;;;;;317.73;116.07;;;;;;;13.23;69.56;99840.72;417653;23;1313;-78
2022/05/02 00:08:14;;;;;;;317.65;117.20;;;;;;;13.27;69.29;99837.88;415685;23;1258;-78
2022/05/02 00:08:24;;;;;;;316.33;117.28;;;;;;;13.33;69.19;99842.00;411926;23;1101;-78
2022/05/02 00:08:34;;;;;;;314.33;117.13;;;;;;;13.37;69.25;99846.19;417823;23;1172;-78
2022/05/02 00:08:45;;;;;;;309.43;114.30;;;;;;;13.36;69.18;99849.75;415738;23;1219;-78
2022/05/02 00:08:55;;;;;;;304.80;112.90;;;;;;;13.26;69.32;99848.47;419948;23;1192;-78
2022/05/02 00:09:06;;;;;;;303.23;112.63;;;;;;;13.17;69.24;99835.75;417620;23;1070;-78
2022/05/02 00:09:16;;;;;;;307.17;114.32;;;;;;;13.12;69.77;99853.50;413730;23;1320;-78
2022/05/02 00:09:26;;;;;;;315.00;116.00;;;;;;;13.06;69.67;99840.66;415957;23;739;-78
2022/05/02 00:09:37;;;;;;;318.38;115.72;;;;;;;13.07;70.15;99853.72;417719;23;1174;-78
2022/05/02 00:09:47;;;;;;;320.40;116.20;;;;;;;13.12;69.86;99853.50;413859;23;1341;-78
2022/05/02 00:09:58;;;;;;;318.47;115.63;;;;;;;13.12;69.76;99838.56;419918;23;1328;-78
2022/05/02 00:10:08;;;;;;;315.35;115.18;;;;;;;13.15;69.80;99845.47;417573;23;1427;-78
2022/05/02 00:10:19;;;;;;;313.15;115.82;;;;;;;13.13;70.04;99840.28;415788;23;1283;-78
2022/05/02 00:10:29;;;;;;;316.17;118.00;;;;;;;13.14;69.62;99846.38;415761;23;1445;-78
2022/05/02 00:10:40;;;;;;;315.83;117.20;;;;;;;13.13;69.67;99847.31;417659;23;1472;-78
2022/05/02 00:10:50;;;;;;;317.17;116.20;;;;;;;13.13;69.97;99842.91;415655;23;1267;-78
2022/05/02 00:11:01;;;;;;;315.45;114.22;;;;;;;13.14;69.55;99843.75;417825;23;1302;-78
2022/05/02 00:11:11;;;;;;;321.43;116.63;;;;;;;13.11;69.45;99836.03;413752;23;1287;-78
2022/05/02 00:11:22;;;;;;;319.25;114.63;;;;;;;13.17;69.67;99841.03;413767;23;1249;-78
2022/05/02 00:11:32;;;;;;;322.33;118.00;;;;;;;13.19;69.61;99850.53;415381;23;1166;-78
2022/05/02 00:11:42;;;;;;;321.52;117.72;;;;;;;13.20;69.74;99848.75;417558;23;1339;-78
2022/05/02 00:11:53;;;;;;;325.93;119.77;;;;;;;13.22;69.62;99841.66;419626;23;1266;-78
2022/05/02 00:12:04;;;;;;;322.80;115.38;;;;;;;13.28;69.38;99851.88;417733;23;1331;-78
2022/05/02 00:12:14;;;;;;;319.23;115.77;;;;;;;13.32;69.59;99851.66;415913;23;1296;-78
2022/05/02 00:12:25;;;;;;;312.55;113.25;;;;;;;13.37;69.23;99846.19;414016;23;794;-78
2022/05/02 00:12:35;;;;;;;310.48;112.72;;;;;;;13.41;69.16;99844.25;419805;23;1301;-78
2022/05/02 00:12:45;;;;;;;312.63;112.97;;;;;;;13.45;69.14;99851.03;418122;23;1265;-78
2022/05/02 00:12:56;;;;;;;314.27;115.80;;;;;;;13.43;68.68;99852.94;415483;23;1398;-78
2022/05/02 00:13:09;;;;;;;316.05;116.47;;;;;;;13.41;68.67;99844.25;419740;23;832;-78
2022/05/02 00:13:19;;;;;;;314.27;115.97;;;;;;;13.43;68.66;99848.47;415727;23;1297;-78
2022/05/02 00:13:31;;;;;;;315.17;116.37;;;;;;;13.45;68.62;99851.88;413716;23;1181;-78
2022/05/02 00:13:42;;;;;;;312.85;116.15;;;;;;;13.41;68.83;99850.38;417852;23;1388;-78
2022/05/02 00:13:52;;;;;;;312.00;117.77;;;;;;;13.39;68.92;99846.09;415898;23;861;-78
2022/05/02 00:14:03;;;;;;;312.10;117.37;;;;;;;13.42;68.99;99848.59;417949;23;1224;-78
2022/05/02 00:14:13;;;;;;;313.73;118.18;;;;;;;13.38;68.75;99847.03;419608;23;1332;-78
2022/05/02 00:14:24;;;;;;;312.23;116.73;;;;;;;13.39;68.73;99844.34;417737;23;1198;-78
2022/05/02 00:14:34;;;;;;;311.67;117.03;;;;;;;13.44;69.02;99844.94;419711;23;1239;-78
2022/05/02 00:14:45;;;;;;;309.60;115.25;;;;;;;13.47;68.81;99843.94;419792;23;1361;-78
2022/05/02 00:14:55;;;;;;;312.07;116.17;;;;;;;13.44;68.71;99844.94;418049;23;1269;-78
2022/05/02 00:15:06;;;;;;;314.47;116.23;;;;;;;13.48;68.49;99851.75;417735;23;1917;-78
2022/05/02 00:15:16;;;;;;;314.13;114.90;;;;;;;13.55;68.49;99847.88;417926;23;1338;-78
2022/05/02 00:15:27;;;;;;;315.93;116.57;;;;;;;13.59;68.43;99856.47;412235;23;1223;-78
2022/05/02 00:15:38;;;;;;;315.40;117.45;;;;;;;13.59;68.42;99845.97;417686;23;1324;-78
2022/05/02 00:15:48;;;;;;;313.73;118.20;;;;;;;13.60;67.67;99858.19;415792;23;1262;-78
2022/05/02 00:15:59;;;;;;;313.73;118.27;;;;;;;13.53;67.99;99852.38;415636;23;1190;-78
2022/05/02 00:16:09;;;;;;;310.07;117.43;;;;;;;13.43;68.18;99847.66;417765;23;1183;-78
2022/05/02 00:16:20;;;;;;;311.77;117.40;;;;;;;13.37;68.34;99848.81;417548;23;904;-78
2022/05/02 00:16:30;;;;;;;307.30;114.33;;;;;;;13.36;68.48;99848.88;413937;23;1233;-77
2022/05/02 00:16:41;;;;;;;309.07;115.00;;;;;;;13.37;68.30;99851.44;417950;23;1224;-78
2022/05/02 00:16:51;;;;;;;308.80;114.45;;;;;;;13.38;68.35;99850.50;415720;23;1206;-78
2022/05/02 00:17:02;;;;;;;310.43;116.27;;;;;;;13.39;68.54;99848.75;417710;23;1342;-78
2022/05/02 00:17:12;;;;;;;310.38;114.75;;;;;;;13.40;68.50;99842.56;415719;23;1204;-78
2022/05/02 00:17:56;;;;;;;311.80;115.57;;;;;;;13.45;68.39;99849.25;414015;23;1150;-78
2022/05/02 00:18:02;;;;;;;314.05;113.70;;;;;;;13.42;68.33;99843.34;415696;23;873;-78
2022/05/02 00:18:12;;;;;;;311.13;113.53;;;;;;;13.38;68.56;99847.03;413682;23;1303;-78
2022/05/02 00:18:23;;;;;;;311.33;115.30;;;;;;;13.39;68.47;99844.34;417639;23;1416;-78
2022/05/02 00:18:33;;;;;;;310.90;116.57;;;;;;;13.44;68.59;99850.19;417800;23;1195;-78
2022/05/02 00:18:44;;;;;;;310.15;116.57;;;;;;;13.46;68.40;99852.75;417900;23;822;-78
2022/05/02 00:18:54;;;;;;;309.23;114.97;;;;;;;13.48;68.40;99849.13;415748;23;1277;-78
2022/05/02 00:19:04;;;;;;;305.70;112.88;;;;;;;13.51;68.15;99846.34;417991;23;1274;-78
2022/05/02 00:19:15;;;;;;;308.93;114.00;;;;;;;13.55;68.15;99850.53;416357;23;881;-78
2022/05/02 00:19:25;;;;;;;311.83;115.93;;;;;;;13.58;67.90;99847.75;415700;23;1273;-78
2022/05/02 00:19:36;;;;;;;313.42;117.30;;;;;;;13.60;68.09;99851.16;415821;23;1188;-79
2022/05/02 00:19:46;;;;;;;312.10;119.27;;;;;;;13.58;67.85;99847.75;416086;23;1279;-79
2022/05/02 00:19:56;;;;;;;311.92;118.68;;;;;;;13.58;67.79;99842.47;414169;23;898;-79
2022/05/02 00:20:07;;;;;;;312.87;119.40;;;;;;;13.61;67.78;99852.84;417881;23;1375;-79
2022/05/02 00:20:18;;;;;;;312.48;117.07;;;;;;;13.61;67.84;99852.00;416220;23;1307;-79
2022/05/02 00:20:36;;;;;;;311.45;116.05;;;;;;;13.60;67.90;99837.16;413902;23;1194;-78
2022/05/02 00:20:47;;;;;;;311.42;113.40;;;;;;;13.63;67.92;99855.41;418020;23;920;-78
2022/05/02 00:20:57;;;;;;;310.10;114.25;;;;;;;13.65;67.63;99849.16;415829;23;1288;-78
2022/05/02 00:21:07;;;;;;;308.33;114.13;;;;;;;13.64;67.79;99850.06;413680;23;1392;-78
2022/05/02 00:21:18;;;;;;;308.10;115.17;;;;;;;13.65;67.58;99854.41;415896;23;913;-78
2022/05/02 00:21:28;;;;;;;309.17;113.90;;;;;;;13.52;67.68;99842.78;415775;23;1336;-78
2022/05/02 00:21:39;;;;;;;312.33;115.73;;;;;;;13.48;67.84;99841.22;414093;23;1182;-78
2022/05/02 00:21:49;;;;;;;313.75;115.82;;;;;;;13.43;67.55;99848.47;417986;23;1242;-78
2022/05/02 00:21:59;;;;;;;314.47;115.80;;;;;;;13.40;67.95;99842.56;417823;23;853;-79
2022/05/02 00:22:10;;;;;;;313.45;115.38;;;;;;;13.36;68.10;99838.38;417732;23;1301;-79
2022/05/02 00:22:20;;;;;;;314.70;116.93;;;;;;;13.40;67.86;99848.66;411287;24;1311;-78
2022/05/02 00:22:31;;;;;;;315.10;118.65;;;;;;;13.35;67.81;99850.66;413878;23;1277;-78
2022/05/02 00:22:41;;;;;;;313.07;119.07;;;;;;;13.28;68.22;99850.09;413892;23;1170;-78
2022/05/02 00:22:52;;;;;;;312.93;118.13;;;;;;;13.26;68.46;99845.84;419717;23;1272;-78
2022/05/02 00:23:06;;;;;;;310.37;117.30;;;;;;;13.28;68.29;99850.09;417821;23;1315;-79
2022/05/02 00:23:16;;;;;;;308.90;114.88;;;;;;;13.32;68.32;99850.81;416258;23;1359;-78
2022/05/02 00:23:28;;;;;;;311.67;115.47;;;;;;;13.36;68.25;99847.09;413940;23;1344;-78
2022/05/02 00:23:39;;;;;;;309.38;115.22;;;;;;;13.36;68.20;99852.38;417983;23;837;-78
2022/05/02 00:23:49;;;;;;;309.23;114.20;;;;;;;13.34;68.33;99848.97;415994;23;1315;-78
2022/05/02 00:23:59;;;;;;;307.63;112.68;;;;;;;13.37;68.43;99848.81;418133;23;928;-80
2022/05/02 00:24:10;;;;;;;313.07;115.33;;;;;;;13.39;68.58;99849.59;414501;23;1249;-79
2022/05/02 00:24:20;;;;;;;314.13;116.97;;;;;;;13.42;68.30;99852.06;412877;24;1224;-79
2022/05/02 00:24:31;;;;;;;316.10;118.97;;;;;;;13.46;68.06;99850.97;418238;23;1185;-79
2022/05/02 00:24:41;;;;;;;314.60;118.45;;;;;;;13.49;68.18;99848.19;416129;23;1385;-79
2022/05/02 00:24:52;;;;;;;315.33;117.50;;;;;;;13.51;68.03;99853.38;416223;23;876;-79
2022/05/02 00:25:04;;;;;;;312.35;115.38;;;;;;;13.54;67.68;99854.06;420014;23;1193;-79
2022/05/02 00:25:14;;;;;;;310.75;115.22;;;;;;;13.56;67.57;99849.59;420109;23;1426;-79
2022/05/02 00:25:25;;;;;;;314.40;117.03;;;;;;;13.51;67.78;99851.59;416684;23;999;-79
2022/05/02 00:25:35;;;;;;;315.80;118.00;;;;;;;13.39;68.11;99846.09;420421;23;1217;-79
2022/05/02 00:25:45;;;;;;;319.47;119.33;;;;;;;13.39;67.97;99851.38;418453;23;1173;-79
2022/05/02 00:25:56;;;;;;;319.88;117.75;;;;;;;13.39;68.22;99854.00;416207;23;1263;-79
2022/05/02 00:26:07;;;;;;;322.53;120.77;;;;;;;13.39;68.00;99857.47;415953;23;1317;-79
2022/05/02 00:26:17;;;;;;;316.45;120.45;;;;;;;13.41;68.15;99850.38;414190;23;1381;-79
2022/05/02 00:26:28;;;;;;;314.70;120.63;;;;;;;13.37;68.11;99851.44;416174;23;1367;-79
2022/05/02 00:26:38;;;;;;;315.43;117.80;;;;;;;13.36;68.26;99847.09;416181;23;1214;-79
2022/05/02 00:26:48;;;;;;;316.17;117.27;;;;;;;13.34;68.25;99848.97;417875;23;1134;-79
2022/05/02 00:26:59;;;;;;;317.43;117.13;;;;;;;13.34;68.13;99851.59;414968;23;1451;-79
2022/05/02 00:27:09;;;;;;;318.60;117.87;;;;;;;13.27;68.61;99843.16;418018;23;766;-79
2022/05/02 00:27:20;;;;;;;321.98;119.90;;;;;;;13.30;68.14;99845.63;418139;23;1201;-79
2022/05/02 00:27:30;;;;;;;322.03;120.40;;;;;;;13.33;68.27;99847.25;414193;23;1406;-79
2022/05/02 00:27:41;;;;;;;319.17;120.35;;;;;;;13.33;68.56;99847.25;420014;23;1324;-79
2022/05/02 00:27:52;;;;;;;316.70;118.60;;;;;;;13.30;68.37;99843.00;418078;23;1209;-79
2022/05/02 00:28:02;;;;;;;316.23;118.03;;;;;;;13.30;68.54;99850.03;414556;23;1314;-79
2022/05/02 00:28:13;;;;;;;314.42;117.18;;;;;;;13.28;68.35;99844.00;418356;23;1276;-79
2022/05/02 00:28:24;;;;;;;313.05;116.22;;;;;;;13.25;68.41;99844.13;416596;23;1229;-79
2022/05/02 00:28:34;;;;;;;315.20;116.63;;;;;;;13.24;68.43;99842.44;414645;23;1281;-79
2022/05/02 00:28:44;;;;;;;316.87;116.47;;;;;;;13.24;68.69;99845.06;412168;24;1228;-79
2022/05/02 00:28:55;;;;;;;317.73;116.53;;;;;;;13.29;68.58;99850.97;418220;23;1294;-79
2022/05/02 00:29:05;;;;;;;316.23;115.70;;;;;;;13.30;68.56;99842.16;418076;23;1161;-79
2022/05/02 00:29:16;;;;;;;317.77;117.63;;;;;;;13.34;68.43;99842.84;414560;23;1357;-79
2022/05/02 00:29:26;;;;;;;318.30;116.75;;;;;;;13.40;68.31;99839.94;418847;23;1213;-79
2022/05/02 00:29:36;;;;;;;317.90;117.20;;;;;;;13.41;68.18;99850.38;416594;23;1182;-79
2022/05/02 00:29:47;;;;;;;317.25;115.40;;;;;;;13.46;68.20;99850.13;414346;23;1023;-79
2022/05/02 00:29:57;;;;;;;316.57;115.87;;;;;;;13.45;67.72;99837.91;414130;23;1273;-79
2022/05/02 00:30:09;;;;;;;318.53;116.00;;;;;;;13.52;67.59;99842.78;414033;23;1156;-79
2022/05/02 00:30:20;;;;;;;315.30;115.63;;;;;;;13.56;68.18;99844.34;416217;23;1350;-79
2022/05/02 00:30:30;;;;;;;315.07;115.63;;;;;;;13.57;67.81;99845.19;416623;23;717;-79
2022/05/02 00:30:41;;;;;;;313.33;116.78;;;;;;;13.58;67.69;99845.09;416122;23;1194;-79
2022/05/02 00:30:52;;;;;;;314.05;116.65;;;;;;;13.61;67.72;99844.09;420591;23;1065;-79
2022/05/02 00:31:03;;;;;;;315.60;118.50;;;;;;;13.63;67.79;99844.88;416855;23;1157;-79
2022/05/02 00:31:14;;;;;;;314.92;116.50;;;;;;;13.61;67.60;99830.97;420387;23;800;-79
2022/05/02 00:31:24;;;;;;;313.43;117.07;;;;;;;13.58;67.32;99826.69;414234;23;1288;-79
2022/05/02 00:31:35;;;;;;;311.63;114.93;;;;;;;13.57;67.47;99825.00;412365;24;1172;-79
2022/05/02 00:31:45;;;;;;;314.63;117.40;;;;;;;13.59;67.52;99836.28;418019;23;1231;-79
2022/05/02 00:31:56;;;;;;;316.20;118.35;;;;;;;13.60;67.48;99840.63;418555;23;1245;-79
2022/05/02 00:32:07;;;;;;;314.70;118.97;;;;;;;13.59;67.94;99841.56;421145;23;1210;-79
2022/05/02 00:32:17;;;;;;;313.17;117.95;;;;;;;13.56;67.51;99839.06;418073;23;1220;-79
2022/05/02 00:32:28;;;;;;;313.87;117.80;;;;;;;13.53;67.65;99833.97;414392;23;1165;-79
2022/05/02 00:32:38;;;;;;;319.43;120.27;;;;;;;13.59;67.45;99831.03;420211;23;1169;-79
2022/05/02 00:32:49;;;;;;;318.23;118.15;;;;;;;13.62;67.53;99836.16;418279;23;1336;-79
2022/05/02 00:32:59;;;;;;;315.27;115.70;;;;;;;13.58;67.42;99831.09;416283;23;1376;-79
2022/05/02 00:33:10;;;;;;;313.53;115.13;;;;;;;13.51;67.56;99835.81;416509;23;1234;-79
2022/05/02 00:33:20;;;;;;;315.58;118.35;;;;;;;13.53;67.51;99835.75;416208;23;1041;-79
2022/05/02 00:33:31;;;;;;;315.90;118.22;;;;;;;13.56;67.46;99839.06;416664;23;1413;-79
2022/05/02 00:33:41;;;;;;;316.33;118.07;;;;;;;13.53;67.39;99828.72;420759;23;1113;-79
2022/05/02 00:33:52;;;;;;;317.90;117.70;;;;;;;13.57;67.26;99835.53;417949;23;1254;-79
2022/05/02 00:34:02;;;;;;;318.45;118.90;;;;;;;13.56;67.36;99839.06;417994;23;1228;-79
2022/05/02 00:34:12;;;;;;;319.27;119.07;;;;;;;13.55;67.53;99826.84;418325;23;1325;-79
2022/05/02 00:34:23;;;;;;;316.80;119.30;;;;;;;13.60;67.49;99832.75;418520;23;836;-79
2022/05/02 00:34:33;;;;;;;316.03;118.63;;;;;;;13.60;67.22;99830.09;416621;23;1119;-79
2022/05/02 00:34:44;;;;;;;314.42;117.70;;;;;;;13.59;67.19;99828.41;417284;23;1441;-79
2022/05/02 00:34:54;;;;;;;316.00;119.27;;;;;;;13.60;67.45;99819.59;414189;23;1308;-79
2022/05/02 00:35:05;;;;;;;316.77;120.00;;;;;;;13.64;67.35;99831.66;416354;23;1190;-79
2022/05/02 00:35:16;;;;;;;314.00;119.18;;;;;;;13.67;67.24;99840.31;417967;23;1913;-79
2022/05/02 00:35:26;;;;;;;310.77;117.90;;;;;;;13.68;67.24;99834.13;417953;23;1158;-79
2022/05/02 00:35:37;;;;;;;309.25;117.00;;;;;;;13.69;67.37;99828.81;414141;23;1311;-79
2022/05/02 00:35:47;;;;;;;312.13;118.67;;;;;;;13.64;67.24;99825.56;422466;23;1185;-79
2022/05/02 00:35:57;;;;;;;313.58;118.10;;;;;;;13.70;67.22;99830.50;418995;23;1338;-79
2022/05/02 00:36:08;;;;;;;315.27;119.50;;;;;;;13.72;67.10;99828.66;418780;23;1317;-79
2022/05/02 00:36:18;;;;;;;312.85;118.53;;;;;;;13.70;67.15;99827.03;415327;23;1198;-79
2022/05/02 00:36:29;;;;;;;314.93;119.93;;;;;;;13.72;67.27;99833.06;418279;23;1193;-79
2022/05/02 00:36:39;;;;;;;314.10;119.13;;;;;;;13.73;66.99;99832.13;416298;23;998;-79
2022/05/02 00:36:50;;;;;;;315.30;119.10;;;;;;;13.69;66.80;99830.59;414196;23;1100;-79
2022/05/02 00:37:00;;;;;;;313.38;117.53;;;;;;;13.65;67.18;99822.00;420289;23;1183;-79
2022/05/02 00:37:10;;;;;;;316.30;117.57;;;;;;;13.58;67.45;99824.06;418673;23;1230;-79
2022/05/02 00:37:21;;;;;;;316.07;117.70;;;;;;;13.59;67.07;99833.66;418624;23;1280;-79
2022/05/02 00:37:31;;;;;;;316.42;117.32;;;;;;;13.53;67.31;99823.44;417899;23;1210;-79
2022/05/02 00:37:42;;;;;;;318.17;118.77;;;;;;;13.47;67.52;99813.22;420072;23;1262;-79
2022/05/02 00:37:52;;;;;;;318.40;119.03;;;;;;;13.47;67.42;99833.41;414300;23;1222;-79
2022/05/02 00:38:03;;;;;;;315.63;118.40;;;;;;;13.43;67.54;99837.16;421978;23;1265;-79
2022/05/02 00:38:13;;;;;;;316.07;117.97;;;;;;;13.41;67.86;99831.97;420452;23;1008;-79
2022/05/02 00:38:24;;;;;;;313.88;116.35;;;;;;;13.42;67.77;99824.94;418781;23;1224;-79
2022/05/02 00:38:34;;;;;;;317.50;118.43;;;;;;;13.37;67.87;99827.78;416930;23;1114;-79
2022/05/02 00:38:45;;;;;;;314.83;119.63;;;;;;;13.38;68.06;99834.75;414576;23;1238;-79
2022/05/02 00:38:55;;;;;;;315.97;120.83;;;;;;;13.36;68.01;99841.00;420709;23;1176;-79
2022/05/02 00:39:06;;;;;;;310.63;117.25;;;;;;;13.30;68.14;99831.63;416012;23;1311;-79
2022/05/02 00:39:16;;;;;;;311.97;116.53;;;;;;;13.23;68.26;99827.59;416137;23;1286;-79
2022/05/02 00:39:27;;;;;;;313.30;116.80;;;;;;;13.20;68.46;99825.09;416292;23;1268;-79
2022/05/02 00:39:37;;;;;;;318.77;118.83;;;;;;;13.24;68.41;99831.94;418269;23;1314;-79
2022/05/02 00:39:48;;;;;;;316.52;118.38;;;;;;;13.21;68.58;99832.06;416739;23;1487;-79
2022/05/02 00:39:58;;;;;;;315.97;118.27;;;;;;;13.17;68.50;99820.00;414358;23;1190;-79
2022/05/02 00:40:11;;;;;;;310.75;117.63;;;;;;;13.24;68.52;99838.03;417754;23;1345;-79
2022/05/02 00:40:21;;;;;;;308.50;116.15;;;;;;;13.22;68.66;99828.50;415687;23;1241;-79
2022/05/02 00:40:32;;;;;;;307.77;113.70;;;;;;;13.18;68.57;99826.97;418053;23;1303;-79
2022/05/02 00:40:42;;;;;;;310.17;114.20;;;;;;;13.11;68.92;99823.72;414253;23;891;-79
2022/05/02 00:40:53;;;;;;;312.03;115.40;;;;;;;13.12;68.71;99824.59;416278;23;1447;-79
2022/05/02 00:41:03;;;;;;;313.70;117.87;;;;;;;13.10;68.83;99822.03;418384;23;1197;-79
2022/05/02 00:41:13;;;;;;;312.87;117.57;;;;;;;13.08;69.12;99823.88;418907;23;1261;-79
2022/05/02 00:41:24;;;;;;;315.13;117.77;;;;;;;13.10;68.98;99826.44;418375;23;1249;-79
2022/05/02 00:41:34;;;;;;;314.60;116.55;;;;;;;13.12;68.94;99827.22;414828;23;1307;-79
2022/05/02 00:41:45;;;;;;;315.23;117.47;;;;;;;13.13;68.92;99826.28;414128;23;1206;-79
2022/05/02 00:41:55;;;;;;;311.98;116.63;;;;;;;13.12;69.08;99827.22;416151;23;1363;-79
2022/05/02 00:42:06;;;;;;;313.90;117.67;;;;;;;13.16;69.08;99828.81;419954;23;1186;-79
2022/05/02 00:42:18;;;;;;;313.98;116.28;;;;;;;13.19;69.00;99828.66;416365;23;1253;-79
2022/05/02 00:42:28;;;;;;;314.63;115.18;;;;;;;13.22;69.00;99823.25;418703;23;1304;-79
2022/05/02 00:42:39;;;;;;;317.35;116.30;;;;;;;13.20;68.74;99820.69;420006;23;1305;-79
2022/05/02 00:42:50;;;;;;;314.75;115.68;;;;;;;13.23;68.78;99817.94;417883;23;1219;-79
2022/05/02 00:43:01;;;;;;;314.65;116.15;;;;;;;13.28;68.57;99822.97;416314;23;1329;-79
2022/05/02 00:43:11;;;;;;;315.00;116.93;;;;;;;13.33;68.51;99823.59;414078;23;1357;-80
2022/05/02 00:43:21;;;;;;;319.20;118.97;;;;;;;13.39;68.33;99825.94;414512;23;840;-80
2022/05/02 00:43:32;;;;;;;319.52;119.45;;;;;;;13.39;68.16;99823.31;416487;23;991;-79
2022/05/02 00:43:42;;;;;;;317.67;118.87;;;;;;;13.43;68.21;99822.19;416975;23;1303;-79
2022/05/02 00:43:54;;;;;;;316.05;117.65;;;;;;;13.48;68.07;99830.72;416862;23;1300;-79
2022/05/02 00:44:04;;;;;;;317.60;117.60;;;;;;;13.47;67.85;99818.50;414952;23;1329;-79
2022/05/02 00:44:15;;;;;;;319.08;119.53;;;;;;;13.43;67.82;99822.19;416691;23;1042;-79
2022/05/02 00:44:25;;;;;;;318.98;120.30;;;;;;;13.42;67.71;99817.03;420070;23;1431;-79
2022/05/02 00:44:36;;;;;;;321.60;121.40;;;;;;;13.37;68.00;99830.41;416236;23;1158;-79
2022/05/02 00:44:46;;;;;;;320.03;121.33;;;;;;;13.30;68.12;99821.13;412976;23;1339;-79
2022/05/02 00:44:56;;;;;;;321.67;121.27;;;;;;;13.23;68.40;99820.56;416591;23;1181;-79
2022/05/02 00:45:08;;;;;;;320.43;119.17;;;;;;;13.22;68.40;99824.09;418277;23;1060;-79
2022/05/02 00:45:19;;;;;;;318.17;115.85;;;;;;;13.18;68.54;99822.56;416007;23;1364;-79
2022/05/02 00:45:34;;;;;;;316.40;115.43;;;;;;;13.11;68.81;99820.25;414204;23;1070;-79
2022/05/02 00:45:45;;;;;;;315.75;116.78;;;;;;;13.12;68.89;99827.22;417978;23;889;-79
2022/05/02 00:45:56;;;;;;;316.38;117.22;;;;;;;13.09;68.93;99828.22;415918;23;1253;-79
2022/05/02 00:46:25;;;;;;;318.15;118.38;;;;;;;13.13;68.72;99813.16;412460;24;1360;-79
2022/05/02 00:46:36;;;;;;;311.13;114.60;;;;;;;13.17;69.01;99820.84;414636;23;1035;-79
2022/05/02 00:46:46;;;;;;;312.73;115.67;;;;;;;13.20;68.83;99819.84;416678;23;1131;-79
2022/05/02 00:46:56;;;;;;;314.15;115.50;;;;;;;13.22;68.90;99820.63;416191;23;912;-79
2022/05/02 00:47:07;;;;;;;316.17;117.30;;;;;;;13.23;68.57;99823.19;416340;23;857;-79
2022/05/02 00:47:20;;;;;;;313.80;116.57;;;;;;;13.24;68.90;99818.78;418255;23;1311;-79
2022/05/02 00:47:30;;;;;;;311.20;115.14;;;;;;;13.28;68.39;99825.59;412770;23;1324;-79
2022/05/02 00:47:41;;;;;;;310.60;114.57;;;;;;;13.26;68.38;99820.41;416327;23;1190;-79
2022/05/02 00:47:55;;;;;;;312.13;115.97;;;;;;;13.32;68.31;99829.78;416187;23;1318;-79
2022/05/02 00:48:07;;;;;;;314.08;116.78;;;;;;;13.31;68.30;99823.66;413958;23;1290;-79
2022/05/02 00:48:17;;;;;;;315.63;117.57;;;;;;;13.30;68.31;99819.34;417966;23;1272;-79
2022/05/02 00:48:29;;;;;;;319.27;118.68;;;;;;;13.29;68.23;99814.16;418300;23;1294;-79
2022/05/02 00:48:39;;;;;;;314.75;117.57;;;;;;;13.32;68.23;99820.13;416226;23;1398;-79
2022/05/02 00:48:50;;;;;;;311.85;115.97;;;;;;;13.33;68.34;99815.72;416535;23;1344;-79
2022/05/02 00:49:00;;;;;;;308.57;113.50;;;;;;;13.35;68.12;99813.84;417019;23;806;-79
2022/05/02 00:49:10;;;;;;;311.60;115.30;;;;;;;13.38;68.13;99818.97;419994;23;1358;-79
2022/05/02 00:49:21;;;;;;;310.03;113.87;;;;;;;13.42;68.06;99825.78;415204;23;1216;-79
2022/05/02 00:49:31;;;;;;;310.63;114.10;;;;;;;13.43;68.36;99821.38;418207;23;1194;-79
2022/05/02 00:49:43;;;;;;;309.23;114.63;;;;;;;13.44;68.18;99821.28;420136;23;1193;-79
2022/05/02 00:49:53;;;;;;;310.42;116.07;;;;;;;13.43;67.93;99816.13;412295;24;1462;-79